Contact Us:
Email: info@sawbill.com
Phone: (218)663-7150
Fax: (218)663-7980
Mail: 4620 Sawbill Trail
Box 2129
Tofte, MN 55615


Powered by
Movable Type 3.15
 
Sawbill Weather History Archives: March 2008
Current Sawbill Weather History | « February 2008 | April 2008 »


Date

High
Temperature

Low
Temperature

Barometric
Pressure

Relative
Humidity 7AM

9 AM
Temperature

Moisture

Snow

3/31/08 35 23 30.06 50% 27 Trace Trace
3/30/08 39 26 29.97 46% 33 0
3/29/08 43 28 29.87 79% 36 Trace Trace
3/28/08 39 0 30.25 56% 28 0
3/27/08 36 -3 30.18 52% 14 0
3/26/08 28 0 30.03 55% 4 0
3/25/08 32 21 29.91 67% 23 .21" 2"
3/24/08 35 32 29.73 95% 33 .48" 4"
3/23/08 31 4 29.86 71% 12 0
3/22/08 37 11 30.27 57% 16 .05" .5"
3/21/08 34 11 30.21 70% 14 0
3/20/08 31 9 30.14 63% 13 0
3/19/08 34 9 30.06 57% 12 0
3/18/08 36 21 29.85 73% 24 Trace Trace
3/17/08 33 21 29.74 87% 28 .11" 1"
3/16/08 28 13 30.18 86% 22 0
3/15/08 28 1 30.30 68% 20 0
3/14/08 31 14 29.97 52% 20 Trace Trace
3/13/08 37 25 29.59 72% 30 Trace Trace
3/12/08 37 30 29.72 95% 33 .25" 3"
3/11/08 39 24 29.74 67% 30 0
3/10/08 28 14 29.98 65% 24 0
3/9/08 23 6 30.12 55% 14 0
3/8/08 18 -13 30.01 65% -5 Trace Trace
3/7/08 12 -9 29.91 49% -7 0
3/6/08 9 -16 30.24 57% -9 0
3/5/08 24 -6 29.88 57% -2 Trace Trace
3/4/08 18 2 29.77 69% 18 .05" .5"
3/3/08 13 -13 29.97 69% 4 0
3/2/08 29 -1 29.83 69% 3 Trace Trace
3/1/08 26 4 30.02 65% 7 0
 


Home I Trip Planning I Rentals and Outfitting I Reservations I Campgrounds I Sawbill Store I Sawbill News I Contact

© 1997 - 2017, Sawbill Canoe Outfitters, Inc. I Privacy Policy